createdAt,value
2023-02-05T00:03:20.134Z,-2.35
2023-02-05T00:08:22.311Z,-2.69
2023-02-05T00:13:27.646Z,-2.40
2023-02-05T00:18:30.630Z,-2.41
2023-02-05T00:23:33.200Z,-2.46
2023-02-05T00:28:36.404Z,-2.45
2023-02-05T00:33:39.131Z,-2.47
2023-02-05T00:38:42.464Z,-2.45
2023-02-05T00:43:44.846Z,-2.59
2023-02-05T00:48:47.920Z,-2.51
2023-02-05T00:53:50.149Z,-2.50
2023-02-05T00:58:52.270Z,-2.70
2023-02-05T01:03:54.431Z,-2.57
2023-02-05T01:08:56.614Z,-2.79
2023-02-05T01:13:58.831Z,-2.81
2023-02-05T01:19:01.040Z,-2.77
2023-02-05T01:24:04.207Z,-2.60
2023-02-05T01:29:06.329Z,-2.74
2023-02-05T01:34:08.703Z,-2.61
2023-02-05T01:39:10.969Z,-2.68
2023-02-05T01:44:18.752Z,-3.05
2023-02-05T01:49:28.717Z,-2.59
2023-02-05T01:54:32.165Z,-3.00
2023-02-05T01:59:37.197Z,-2.62
2023-02-05T02:04:53.751Z,-2.60
2023-02-05T02:09:56.128Z,-2.71
2023-02-05T02:15:04.283Z,-2.87
2023-02-05T02:20:11.452Z,-2.70
2023-02-05T02:25:19.627Z,-2.67
2023-02-05T02:30:27.994Z,-2.68
2023-02-05T02:35:33.883Z,-2.72
2023-02-05T02:40:41.529Z,-2.75
2023-02-05T02:45:53.581Z,-2.88
2023-02-05T02:50:57.227Z,-3.02
2023-02-05T02:56:01.248Z,-2.88
2023-02-05T03:01:07.114Z,-2.95
2023-02-05T03:06:10.771Z,-2.94
2023-02-05T03:11:14.961Z,-3.03
2023-02-05T03:16:19.259Z,-2.99
2023-02-05T03:21:33.419Z,-3.25
2023-02-05T03:26:36.436Z,-3.25
2023-02-05T03:31:57.892Z,-3.04
2023-02-05T03:37:10.186Z,-3.09
2023-02-05T03:42:30.817Z,-3.10
2023-02-05T03:47:49.654Z,-3.17
2023-02-05T03:52:57.524Z,-3.24
2023-02-05T03:58:04.446Z,-3.37
2023-02-05T04:03:06.794Z,-3.42
2023-02-05T04:08:09.947Z,-3.49
2023-02-05T04:13:18.751Z,-3.82
2023-02-05T04:18:21.082Z,-3.82
2023-02-05T04:23:24.997Z,-3.79
2023-02-05T04:28:28.190Z,-3.79
2023-02-05T04:33:30.798Z,-3.89
2023-02-05T04:38:33.268Z,-4.09
2023-02-05T04:43:35.424Z,-4.07
2023-02-05T04:48:38.715Z,-4.07
2023-02-05T04:53:41.117Z,-4.13
2023-02-05T04:58:44.093Z,-4.13
2023-02-05T05:03:46.530Z,-4.19
2023-02-05T05:08:48.806Z,-4.51
2023-02-05T05:13:52.404Z,-4.33
2023-02-05T05:18:54.547Z,-4.68
2023-02-05T05:23:56.691Z,-4.53
2023-02-05T05:28:59.143Z,-4.68
2023-02-05T05:34:01.437Z,-4.84
2023-02-05T05:39:22.006Z,-4.78
2023-02-05T05:44:24.180Z,-4.73
2023-02-05T05:49:26.388Z,-4.81
2023-02-05T05:59:38.919Z,-4.87
2023-02-05T06:04:41.051Z,-4.92
2023-02-05T06:09:43.257Z,-5.00
2023-02-05T06:14:45.401Z,-4.92
2023-02-05T06:19:47.492Z,-4.94
2023-02-05T06:24:49.616Z,-5.05
2023-02-05T06:29:51.718Z,-5.14
2023-02-05T06:34:53.951Z,-5.12
2023-02-05T06:39:56.347Z,-5.09
2023-02-05T06:44:58.520Z,-5.03
2023-02-05T06:50:00.744Z,-5.14
2023-02-05T06:55:27.617Z,-5.02
2023-02-05T07:00:31.528Z,-5.23
2023-02-05T07:05:35.246Z,-5.03
2023-02-05T07:10:37.669Z,-5.14
2023-02-05T07:15:39.827Z,-4.97
2023-02-05T07:20:41.956Z,-4.85
2023-02-05T07:25:44.044Z,-4.84
2023-02-05T07:30:48.032Z,-4.63
2023-02-05T07:35:50.144Z,-4.65
2023-02-05T07:40:52.235Z,-4.58
2023-02-05T07:45:58.348Z,-4.38
2023-02-05T07:51:00.915Z,-4.31
2023-02-05T07:56:06.287Z,-3.91
2023-02-05T08:01:08.980Z,-3.62
2023-02-05T08:06:14.765Z,-3.18
2023-02-05T08:11:18.272Z,-2.92
2023-02-05T08:16:20.565Z,-2.74
2023-02-05T08:21:22.853Z,-2.86
2023-02-05T08:26:25.051Z,-2.70
2023-02-05T08:31:27.426Z,-2.57
2023-02-05T08:36:29.776Z,-2.56
2023-02-05T08:41:31.929Z,-2.50
2023-02-05T08:46:48.920Z,-2.70
2023-02-05T08:51:52.374Z,-2.57
2023-02-05T08:56:54.522Z,-2.91
2023-02-05T09:01:56.636Z,-2.73
2023-02-05T09:06:58.770Z,-2.89
2023-02-05T09:12:01.318Z,-2.88
2023-02-05T09:17:05.758Z,-2.70
2023-02-05T09:22:08.727Z,-2.70
2023-02-05T09:27:14.461Z,-2.65
2023-02-05T09:32:16.592Z,-2.63
2023-02-05T09:37:18.858Z,-2.74
2023-02-05T09:42:32.575Z,-2.53
2023-02-05T09:47:39.451Z,-2.42
2023-02-05T09:52:45.503Z,-2.62
2023-02-05T09:57:47.694Z,-2.77
2023-02-05T10:02:57.810Z,-2.34
2023-02-05T10:08:16.473Z,-2.31
2023-02-05T10:13:25.275Z,-2.35
2023-02-05T10:18:39.493Z,-2.30
2023-02-05T10:24:19.122Z,-2.23
2023-02-05T10:29:30.914Z,-2.42
2023-02-05T10:34:52.767Z,-2.21
2023-02-05T10:39:56.902Z,-2.28
2023-02-05T10:45:09.928Z,-2.21
2023-02-05T10:50:35.643Z,-2.17
2023-02-05T10:55:38.344Z,-2.41
2023-02-05T11:00:40.647Z,-2.22
2023-02-05T11:05:44.182Z,-2.05
2023-02-05T11:10:53.211Z,-2.00
2023-02-05T11:16:01.279Z,-2.35
2023-02-05T11:21:06.307Z,-2.02
2023-02-05T11:26:16.735Z,-1.97
2023-02-05T11:31:32.549Z,-1.97
2023-02-05T11:36:51.220Z,-1.96
2023-02-05T11:41:56.820Z,-2.25
2023-02-05T11:47:02.365Z,-2.02
2023-02-05T11:52:15.527Z,-1.95
2023-02-05T11:57:17.616Z,-2.02
2023-02-05T12:02:28.951Z,-2.02
2023-02-05T12:07:55.771Z,-2.05
2023-02-05T12:13:08.129Z,-2.02
2023-02-05T12:18:16.754Z,-2.05
2023-02-05T12:23:32.374Z,-2.03
2023-02-05T12:28:50.928Z,-2.15
2023-02-05T12:34:16.326Z,-1.94
2023-02-05T12:39:49.128Z,-1.94
2023-02-05T12:44:54.761Z,-1.95
2023-02-05T12:50:02.579Z,-1.94
2023-02-05T12:55:25.713Z,-1.87
2023-02-05T13:00:34.621Z,-2.09
2023-02-05T13:06:02.548Z,-1.90
2023-02-05T13:11:37.705Z,-1.95
2023-02-05T13:16:47.577Z,-1.92
2023-02-05T13:22:10.197Z,-2.24
2023-02-05T13:27:47.526Z,-1.92
2023-02-05T13:32:52.140Z,-1.99
2023-02-05T13:38:17.601Z,-2.15
2023-02-05T13:43:29.249Z,-1.98
2023-02-05T13:48:57.569Z,-1.95
2023-02-05T13:54:24.588Z,-1.97
2023-02-05T13:59:36.378Z,-2.23
2023-02-05T14:04:49.087Z,-2.31
2023-02-05T14:09:57.306Z,-2.14
2023-02-05T14:15:17.737Z,-1.99
2023-02-05T14:20:26.561Z,-2.02
2023-02-05T14:25:43.535Z,-2.00
2023-02-05T14:30:52.858Z,-2.05
2023-02-05T14:36:17.605Z,-2.05
2023-02-05T14:41:50.877Z,-2.15
2023-02-05T14:46:58.378Z,-2.28
2023-02-05T14:52:21.803Z,-2.09
2023-02-05T14:57:38.030Z,-2.12
2023-02-05T15:03:02.331Z,-2.11
2023-02-05T15:08:18.314Z,-2.09
2023-02-05T15:13:21.493Z,-2.26
2023-02-05T15:18:32.717Z,-2.38
2023-02-05T15:23:39.490Z,-2.15
2023-02-05T15:29:04.109Z,-2.10
2023-02-05T15:34:43.303Z,-2.12
2023-02-05T15:39:56.230Z,-2.51
2023-02-05T15:44:58.587Z,-2.45
2023-02-05T15:50:02.575Z,-2.35
2023-02-05T15:55:12.339Z,-2.20
2023-02-05T16:00:19.307Z,-2.10
2023-02-05T16:05:23.409Z,-2.30
2023-02-05T16:10:31.044Z,-2.38
2023-02-05T16:15:47.234Z,-2.38
2023-02-05T16:20:56.066Z,-2.24
2023-02-05T16:26:01.678Z,-2.35
2023-02-05T16:31:08.224Z,-2.43
2023-02-05T16:36:21.798Z,-2.35
2023-02-05T16:41:27.971Z,-2.27
2023-02-05T16:46:31.775Z,-2.30
2023-02-05T16:51:46.202Z,-2.25
2023-02-05T16:57:08.787Z,-2.22
2023-02-05T17:02:39.869Z,-2.22
2023-02-05T17:08:08.562Z,-2.25
2023-02-05T17:13:41.880Z,-2.31
2023-02-05T17:18:53.856Z,-2.30
2023-02-05T17:23:58.139Z,-2.58
2023-02-05T17:29:02.884Z,-2.33
2023-02-05T17:34:05.417Z,-2.34
2023-02-05T17:39:10.652Z,-2.39
2023-02-05T17:44:15.817Z,-2.36
2023-02-05T17:49:18.107Z,-2.50
2023-02-05T17:54:25.748Z,-2.37
2023-02-05T17:59:28.317Z,-2.44
2023-02-05T18:04:30.433Z,-2.63
2023-02-05T18:09:32.893Z,-2.42
2023-02-05T18:14:35.073Z,-2.47
2023-02-05T18:19:39.586Z,-2.44
2023-02-05T18:24:41.845Z,-2.68
2023-02-05T18:29:46.310Z,-2.46
2023-02-05T18:34:48.637Z,-2.49
2023-02-05T18:39:51.170Z,-2.51
2023-02-05T18:44:56.662Z,-2.64
2023-02-05T18:50:03.374Z,-2.58
2023-02-05T18:55:09.412Z,-2.74
2023-02-05T19:00:12.217Z,-2.69
2023-02-05T19:05:14.401Z,-2.57
2023-02-05T19:10:18.370Z,-2.67
2023-02-05T19:15:20.705Z,-2.66
2023-02-05T19:20:23.040Z,-2.83
2023-02-05T19:25:25.324Z,-2.71
2023-02-05T19:30:27.533Z,-2.81
2023-02-05T19:35:29.785Z,-2.88
2023-02-05T19:40:35.008Z,-2.91
2023-02-05T19:45:37.950Z,-2.82
2023-02-05T19:50:41.302Z,-2.84
2023-02-05T19:55:43.418Z,-2.87
2023-02-05T20:00:45.585Z,-2.95
2023-02-05T20:05:47.712Z,-3.14
2023-02-05T20:10:59.939Z,-3.11
2023-02-05T20:16:13.560Z,-3.18
2023-02-05T20:21:19.023Z,-3.06
2023-02-05T20:26:26.700Z,-3.09
2023-02-05T20:31:35.074Z,-3.01
2023-02-05T20:36:37.975Z,-3.02
2023-02-05T20:41:40.321Z,-3.05
2023-02-05T20:46:42.830Z,-3.05
2023-02-05T20:51:44.938Z,-3.06
2023-02-05T20:56:47.149Z,-3.09
2023-02-05T21:01:49.312Z,-3.12
2023-02-05T21:06:53.781Z,-3.15
2023-02-05T21:11:56.056Z,-3.17
2023-02-05T21:16:58.265Z,-3.23
2023-02-05T21:22:00.718Z,-3.30
2023-02-05T21:27:02.860Z,-3.32
2023-02-05T21:32:05.247Z,-3.25
2023-02-05T21:37:07.456Z,-3.30
2023-02-05T21:42:09.695Z,-3.27
2023-02-05T21:47:11.831Z,-3.27
2023-02-05T21:52:13.962Z,-3.46
2023-02-05T21:57:16.835Z,-3.35
2023-02-05T22:02:19.061Z,-3.40
2023-02-05T22:07:21.323Z,-3.48
2023-02-05T22:12:27.379Z,-3.46
2023-02-05T22:17:32.511Z,-3.63
2023-02-05T22:22:37.059Z,-3.45
2023-02-05T22:27:39.173Z,-3.59
2023-02-05T22:32:41.324Z,-3.45
2023-02-05T22:37:43.474Z,-3.60
2023-02-05T22:42:45.560Z,-3.58
2023-02-05T22:47:47.708Z,-3.57
2023-02-05T22:52:49.970Z,-3.85
2023-02-05T22:57:53.047Z,-3.64
2023-02-05T23:02:58.077Z,-3.84
2023-02-05T23:08:00.811Z,-3.84
2023-02-05T23:13:03.008Z,-3.78
2023-02-05T23:18:05.120Z,-3.70
2023-02-05T23:23:07.253Z,-3.91
2023-02-05T23:28:09.410Z,-3.79
2023-02-05T23:33:11.532Z,-3.76
2023-02-05T23:38:13.572Z,-3.76
2023-02-05T23:43:15.671Z,-3.81
2023-02-05T23:48:18.071Z,-4.05
2023-02-05T23:53:21.312Z,-3.89
2023-02-05T23:58:26.153Z,-4.11
